Loncopue, Argentina
Current Conditions -  °F | °C
As of 1:00 PM on Sunday 23 Nov 2014 (Local Time) from SCQP Reporting Station
Rain Showers Rain Showers  
Wind Chill: 57°   Ceiling: 2900
Heat Index: 57°   Visibility: 6mi
Dew Point: 54°   Wind: 15mph
Humidity: 88%   Direction: 290°WNW
Pressure: 29.94"   Gusts: NA
Location:  38.07°S, 70.62°W
Report Text: SCQP 231600Z 29013KT 9999 -SHRA OVC029 14/12 Q1014
Loading
Personal Weather Stations






























Interactive Weather Map New forecast layout! Learn more

10-Day Weather Forecast

Advertisements
Track Severe Weather on mobile